Time,TemperatureF,DewpointF,PressureIn,WindDirection,WindDirectionDegrees,WindSpeedMPH,WindSpeedGustMPH,Humidity,HourlyPrecipIn,Conditions,Clouds,dailyrainin,SolarRadiationWatts/m^2,SoftwareType,DateUTC
2013-07-22 00:01:00,63.0,40.0,-100.00,ENE,77,1.0,3.0,41,-99.99,,,0.00,0.000000,,2013-07-22 06:01:00,
2013-07-22 00:11:00,63.0,40.0,-100.00,ENE,77,1.0,3.0,41,-99.99,,,0.00,0.000000,,2013-07-22 06:11:00,
2013-07-22 00:43:00,63.0,37.0,-100.00,East,80,2.0,4.0,38,-99.99,,,0.00,0.000000,,2013-07-22 06:43:00,
2013-07-22 00:52:00,63.0,37.0,-100.00,East,80,2.0,4.0,38,-99.99,,,0.00,0.000000,,2013-07-22 06:52:00,
2013-07-22 01:01:00,63.0,37.0,-100.00,East,80,2.0,4.0,38,-99.99,,,0.00,0.000000,,2013-07-22 07:01:00,
2013-07-22 01:11:00,63.0,37.0,-100.00,East,80,2.0,4.0,38,-99.99,,,0.00,0.000000,,2013-07-22 07:11:00,
2013-07-22 01:43:00,55.0,42.0,-100.00,SE,138,2.0,4.0,60,-99.99,,,0.00,0.000000,,2013-07-22 07:43:00,
2013-07-22 01:53:00,55.0,42.0,-100.00,SE,138,2.0,4.0,60,-99.99,,,0.00,0.000000,,2013-07-22 07:53:00,
2013-07-22 02:01:00,55.0,42.0,-100.00,SE,138,2.0,4.0,60,-99.99,,,0.00,0.000000,,2013-07-22 08:01:00,
2013-07-22 02:11:00,55.0,42.0,-100.00,SE,138,2.0,4.0,60,-99.99,,,0.00,0.000000,,2013-07-22 08:11:00,
2013-07-22 02:43:00,57.0,39.0,-100.00,SE,124,3.0,6.0,49,-99.99,,,0.00,0.000000,,2013-07-22 08:43:00,
2013-07-22 02:52:00,57.0,39.0,-100.00,SE,124,3.0,6.0,49,-99.99,,,0.00,0.000000,,2013-07-22 08:52:00,
2013-07-22 03:02:00,57.0,39.0,-100.00,SE,124,3.0,6.0,49,-99.99,,,0.00,0.000000,,2013-07-22 09:02:00,
2013-07-22 03:11:00,57.0,39.0,-100.00,SE,124,3.0,6.0,49,-99.99,,,0.00,0.000000,,2013-07-22 09:11:00,
2013-07-22 03:42:00,55.0,37.0,-100.00,SE,130,1.0,3.0,50,-99.99,,,0.00,0.000000,,2013-07-22 09:42:00,
2013-07-22 03:52:00,55.0,37.0,-100.00,SE,130,1.0,3.0,50,-99.99,,,0.00,0.000000,,2013-07-22 09:52:00,
2013-07-22 04:01:00,55.0,37.0,-100.00,SE,130,1.0,3.0,50,-99.99,,,0.00,0.000000,,2013-07-22 10:01:00,
2013-07-22 04:11:00,55.0,37.0,-100.00,SE,130,1.0,3.0,50,-99.99,,,0.00,0.000000,,2013-07-22 10:11:00,
2013-07-22 04:43:00,53.0,39.0,-100.00,East,89,2.0,5.0,59,-99.99,,,0.00,0.000000,,2013-07-22 10:43:00,
2013-07-22 04:53:00,53.0,39.0,-100.00,East,89,2.0,5.0,59,-99.99,,,0.00,0.000000,,2013-07-22 10:53:00,
2013-07-22 05:01:00,53.0,39.0,-100.00,East,89,2.0,5.0,59,-99.99,,,0.00,0.000000,,2013-07-22 11:01:00,
2013-07-22 05:11:00,53.0,39.0,-100.00,East,89,2.0,5.0,59,-99.99,,,0.00,0.000000,,2013-07-22 11:11:00,
2013-07-22 05:43:00,53.0,38.0,-100.00,SSE,155,1.0,3.0,58,-99.99,,,-99.99,0.000000,,2013-07-22 11:43:00,
2013-07-22 05:52:00,53.0,38.0,-100.00,SSE,155,1.0,3.0,58,-99.99,,,-99.99,0.000000,,2013-07-22 11:52:00,
2013-07-22 06:02:00,53.0,38.0,-100.00,SSE,155,1.0,3.0,58,-99.99,,,-99.99,0.000000,,2013-07-22 12:02:00,
2013-07-22 06:11:00,53.0,38.0,-100.00,SSE,155,1.0,3.0,58,-99.99,,,-99.99,0.000000,,2013-07-22 12:11:00,
2013-07-22 06:43:00,51.0,36.0,-100.00,North,0,0.0,0.0,57,-99.99,,,0.00,5.000000,,2013-07-22 12:43:00,
2013-07-22 06:53:00,51.0,36.0,-100.00,North,0,0.0,0.0,57,-99.99,,,0.00,5.000000,,2013-07-22 12:53:00,
2013-07-22 07:01:00,51.0,36.0,-100.00,North,0,0.0,0.0,57,-99.99,,,0.00,5.000000,,2013-07-22 13:01:00,
2013-07-22 07:11:00,51.0,36.0,-100.00,North,0,0.0,0.0,57,-99.99,,,0.00,5.000000,,2013-07-22 13:11:00,
2013-07-22 07:43:00,53.0,39.0,-100.00,East,86,1.0,3.0,58,-99.99,,,0.00,124.699997,,2013-07-22 13:43:00,
2013-07-22 07:53:00,53.0,39.0,-100.00,East,86,1.0,3.0,58,-99.99,,,0.00,124.699997,,2013-07-22 13:53:00,
2013-07-22 08:01:00,53.0,39.0,-100.00,East,86,1.0,3.0,58,-99.99,,,0.00,124.699997,,2013-07-22 14:01:00,
2013-07-22 08:11:00,53.0,39.0,-100.00,East,86,1.0,3.0,58,-99.99,,,0.00,124.699997,,2013-07-22 14:11:00,
2013-07-22 08:43:00,61.0,41.0,-100.00,SW,233,1.0,3.0,47,-99.99,,,0.00,298.690002,,2013-07-22 14:43:00,
2013-07-22 08:53:00,61.0,41.0,-100.00,SW,233,1.0,3.0,47,-99.99,,,0.00,298.690002,,2013-07-22 14:53:00,
2013-07-22 09:01:00,61.0,41.0,-100.00,SW,233,1.0,3.0,47,-99.99,,,0.00,298.690002,,2013-07-22 15:01:00,
2013-07-22 09:11:00,61.0,41.0,-100.00,SW,233,1.0,3.0,47,-99.99,,,0.00,298.690002,,2013-07-22 15:11:00,
2013-07-22 09:42:00,64.0,41.0,-100.00,West,277,2.0,4.0,42,-99.99,,,0.00,476.149994,,2013-07-22 15:42:00,
2013-07-22 09:52:00,64.0,41.0,-100.00,West,277,2.0,4.0,42,-99.99,,,0.00,476.149994,,2013-07-22 15:52:00,
2013-07-22 10:01:00,64.0,41.0,-100.00,West,277,2.0,4.0,42,-99.99,,,0.00,476.149994,,2013-07-22 16:01:00,
2013-07-22 10:11:00,64.0,41.0,-100.00,West,277,2.0,4.0,42,-99.99,,,0.00,476.149994,,2013-07-22 16:11:00,
2013-07-22 10:43:00,70.0,44.0,-100.00,NW,310,1.0,3.0,40,-99.99,,,0.00,659.320007,,2013-07-22 16:43:00,
2013-07-22 10:52:00,70.0,44.0,-100.00,NW,310,1.0,3.0,40,-99.99,,,0.00,659.320007,,2013-07-22 16:52:00,
2013-07-22 11:01:00,70.0,44.0,-100.00,NW,310,1.0,3.0,40,-99.99,,,0.00,659.320007,,2013-07-22 17:01:00,
2013-07-22 11:11:00,70.0,44.0,-100.00,NW,310,1.0,3.0,40,-99.99,,,0.00,659.320007,,2013-07-22 17:11:00,
2013-07-22 11:43:00,77.0,44.0,-100.00,SSE,158,1.0,4.0,31,-99.99,,,0.00,807.380005,,2013-07-22 17:43:00,
2013-07-22 11:52:00,77.0,44.0,-100.00,SSE,158,1.0,4.0,31,-99.99,,,0.00,807.380005,,2013-07-22 17:52:00,
2013-07-22 12:13:00,77.0,44.0,-100.00,SSE,158,1.0,4.0,31,-99.99,,,0.00,807.380005,,2013-07-22 18:13:00,
2013-07-22 12:47:00,83.0,32.0,-100.00,SE,143,4.0,7.0,16,-99.99,,,-99.99,914.650024,,2013-07-22 18:47:00,
2013-07-22 12:58:00,83.0,32.0,-100.00,SE,143,4.0,7.0,16,-99.99,,,-99.99,914.650024,,2013-07-22 18:58:00,
2013-07-22 13:12:00,83.0,32.0,-100.00,SE,143,4.0,7.0,16,-99.99,,,-99.99,914.650024,,2013-07-22 19:12:00,
2013-07-22 13:43:00,85.0,30.0,-100.00,ESE,116,5.0,11.0,13,-99.99,,,0.00,966.950012,,2013-07-22 19:43:00,
2013-07-22 13:55:00,85.0,30.0,-100.00,ESE,116,5.0,11.0,13,-99.99,,,0.00,966.950012,,2013-07-22 19:55:00,
2013-07-22 14:03:00,85.0,30.0,-100.00,ESE,116,5.0,11.0,13,-99.99,,,0.00,966.950012,,2013-07-22 20:03:00,
2013-07-22 14:13:00,85.0,30.0,-100.00,ESE,116,5.0,11.0,13,-99.99,,,0.00,966.950012,,2013-07-22 20:13:00,
2013-07-22 14:43:00,87.0,31.0,-100.00,SE,140,4.0,12.0,13,-99.99,,,0.00,962.299988,,2013-07-22 20:43:00,
2013-07-22 14:52:00,87.0,31.0,-100.00,SE,140,4.0,12.0,13,-99.99,,,0.00,962.299988,,2013-07-22 20:52:00,
2013-07-22 15:01:00,87.0,31.0,-100.00,SE,140,4.0,12.0,13,-99.99,,,0.00,962.299988,,2013-07-22 21:01:00,
2013-07-22 15:11:00,87.0,31.0,-100.00,SE,140,4.0,12.0,13,-99.99,,,0.00,962.299988,,2013-07-22 21:11:00,
2013-07-22 15:43:00,88.0,30.0,-100.00,ESE,102,5.0,10.0,12,-99.99,,,0.00,914.650024,,2013-07-22 21:43:00,
2013-07-22 15:53:00,88.0,30.0,-100.00,ESE,102,5.0,10.0,12,-99.99,,,0.00,914.650024,,2013-07-22 21:53:00,
2013-07-22 16:01:00,88.0,30.0,-100.00,ESE,102,5.0,10.0,12,-99.99,,,0.00,914.650024,,2013-07-22 22:01:00,
2013-07-22 16:11:00,88.0,30.0,-100.00,ESE,102,5.0,10.0,12,-99.99,,,0.00,914.650024,,2013-07-22 22:11:00,
2013-07-22 16:43:00,90.0,32.0,-100.00,West,261,2.0,7.0,12,-99.99,,,0.00,800.869995,,2013-07-22 22:43:00,
2013-07-22 16:52:00,90.0,32.0,-100.00,West,261,2.0,7.0,12,-99.99,,,0.00,800.869995,,2013-07-22 22:52:00,
2013-07-22 17:01:00,90.0,32.0,-100.00,West,261,2.0,7.0,12,-99.99,,,0.00,800.869995,,2013-07-22 23:01:00,
2013-07-22 17:11:00,90.0,32.0,-100.00,West,261,2.0,7.0,12,-99.99,,,0.00,800.869995,,2013-07-22 23:11:00,
2013-07-22 17:42:00,90.0,36.0,-100.00,NW,312,2.0,6.0,14,-99.99,,,0.00,662.109985,,2013-07-22 23:42:00,
2013-07-22 17:52:00,90.0,36.0,-100.00,NW,312,2.0,6.0,14,-99.99,,,0.00,662.109985,,2013-07-22 23:52:00,
2013-07-22 18:01:00,90.0,36.0,-100.00,NW,312,2.0,6.0,14,-99.99,,,0.00,662.109985,,2013-07-23 00:01:00,
2013-07-22 18:11:00,90.0,36.0,-100.00,NW,312,2.0,6.0,14,-99.99,,,0.00,662.109985,,2013-07-23 00:11:00,
2013-07-22 18:43:00,87.0,31.0,-100.00,West,271,10.0,16.0,13,-99.99,,,0.00,501.140015,,2013-07-23 00:43:00,
2013-07-22 18:52:00,87.0,31.0,-100.00,West,271,10.0,16.0,13,-99.99,,,0.00,501.140015,,2013-07-23 00:52:00,
2013-07-22 19:01:00,87.0,31.0,-100.00,West,271,10.0,16.0,13,-99.99,,,0.00,501.140015,,2013-07-23 01:01:00,
2013-07-22 19:11:00,87.0,31.0,-100.00,West,271,10.0,16.0,13,-99.99,,,0.00,501.140015,,2013-07-23 01:11:00,
2013-07-22 19:43:00,86.0,33.0,-100.00,WNW,285,5.0,9.0,15,-99.99,,,0.00,316.700012,,2013-07-23 01:43:00,
2013-07-22 19:53:00,86.0,33.0,-100.00,WNW,285,5.0,9.0,15,-99.99,,,0.00,316.700012,,2013-07-23 01:53:00,
2013-07-22 20:01:00,86.0,33.0,-100.00,WNW,285,5.0,9.0,15,-99.99,,,0.00,316.700012,,2013-07-23 02:01:00,
2013-07-22 20:11:00,86.0,33.0,-100.00,WNW,285,5.0,9.0,15,-99.99,,,0.00,316.700012,,2013-07-23 02:11:00,
2013-07-22 21:43:00,75.0,39.0,-100.00,NE,48,1.0,4.0,27,-99.99,,,0.00,9.180000,,2013-07-23 03:43:00,
2013-07-22 21:52:00,75.0,39.0,-100.00,NE,48,1.0,4.0,27,-99.99,,,0.00,9.180000,,2013-07-23 03:52:00,
2013-07-22 22:01:00,75.0,39.0,-100.00,NE,48,1.0,4.0,27,-99.99,,,0.00,9.180000,,2013-07-23 04:01:00,
2013-07-22 22:11:00,75.0,39.0,-100.00,NE,48,1.0,4.0,27,-99.99,,,0.00,9.180000,,2013-07-23 04:11:00,
2013-07-22 22:42:00,71.0,40.0,-100.00,SE,132,1.0,5.0,32,-99.99,,,0.00,0.000000,,2013-07-23 04:42:00,
2013-07-22 22:53:00,71.0,40.0,-100.00,SE,132,1.0,5.0,32,-99.99,,,0.00,0.000000,,2013-07-23 04:53:00,
2013-07-22 23:02:00,71.0,40.0,-100.00,SE,132,1.0,5.0,32,-99.99,,,0.00,0.000000,,2013-07-23 05:02:00,
2013-07-22 23:11:00,71.0,40.0,-100.00,SE,132,1.0,5.0,32,-99.99,,,0.00,0.000000,,2013-07-23 05:11:00,
2013-07-22 23:43:00,65.0,39.0,-100.00,East,90,3.0,5.0,39,-99.99,,,0.00,0.000000,,2013-07-23 05:43:00,
2013-07-22 23:52:00,65.0,39.0,-100.00,East,90,3.0,5.0,39,-99.99,,,0.00,0.000000,,2013-07-23 05:52:00,